Terminal Aerodrome Forecast
Issued by NWS

Home | Current Version | Previous Version | Text Only | Print | Product List | Glossary On
Versions: 1 2 3 4 5 6 7 8 9 10 11 12 13 14 15 16 17 18 19 20 21 22 23 24 25 26 27 28 29 30 31 32 33 34 35 36 37 38 39 40 41 42 43 44 45 46 47 48 49
000
FTUS45 KBOU 150340 AAB
TAFAPA
TAF AMD
KAPA 150340Z 1504/1524 VRB04KT P6SM SCT100 BKN220
     FM150600 01011KT P6SM SCT020
     FM150900 02007KT P6SM SCT005 BKN009
      TEMPO 1512/1516 1SM -DZ BR BKN004
     FM151600 05005KT P6SM SCT008 BKN020
     FM151800 16011KT P6SM FEW040 SCT110=

USA.gov is the U.S. government's official web portal to all federal, state and local government web resources and services.